createdAt,value
2024-01-12T00:01:53.208Z,12.80
2024-01-12T00:04:20.077Z,11.53
2024-01-12T00:06:47.698Z,11.30
2024-01-12T00:09:14.699Z,11.20
2024-01-12T00:11:41.614Z,11.30
2024-01-12T00:14:09.098Z,11.83
2024-01-12T00:16:35.924Z,11.00
2024-01-12T00:19:02.852Z,11.40
2024-01-12T00:21:29.714Z,12.20
2024-01-12T00:23:56.695Z,12.07
2024-01-12T00:26:23.582Z,12.10
2024-01-12T00:28:50.396Z,11.87
2024-01-12T00:31:17.357Z,11.33
2024-01-12T00:33:44.247Z,11.57
2024-01-12T00:36:12.234Z,11.60
2024-01-12T00:38:39.034Z,11.33
2024-01-12T00:41:05.909Z,11.43
2024-01-12T00:43:32.708Z,11.37
2024-01-12T00:45:59.853Z,10.90
2024-01-12T00:48:26.984Z,11.20
2024-01-12T00:50:54.227Z,12.07
2024-01-12T00:53:21.262Z,10.67
2024-01-12T00:55:48.166Z,10.67
2024-01-12T00:58:14.923Z,12.10
2024-01-12T01:00:41.778Z,11.37
2024-01-12T01:03:08.749Z,11.50
2024-01-12T01:05:35.684Z,12.13
2024-01-12T01:08:02.520Z,11.20
2024-01-12T01:10:29.301Z,12.93
2024-01-12T01:12:56.158Z,11.87
2024-01-12T01:15:23.181Z,12.60
2024-01-12T01:17:50.798Z,12.93
2024-01-12T01:20:17.899Z,12.10
2024-01-12T01:22:44.816Z,12.03
2024-01-12T01:25:11.923Z,12.43
2024-01-12T01:27:38.735Z,11.30
2024-01-12T01:30:06.155Z,11.57
2024-01-12T01:32:33.816Z,11.23
2024-01-12T01:35:00.885Z,11.93
2024-01-12T01:37:27.672Z,11.30
2024-01-12T01:39:54.526Z,11.07
2024-01-12T01:42:21.392Z,10.83
2024-01-12T01:44:48.221Z,11.87
2024-01-12T01:47:16.099Z,12.03
2024-01-12T01:49:43.013Z,11.33
2024-01-12T01:52:10.901Z,11.30
2024-01-12T01:54:38.058Z,11.50
2024-01-12T01:57:06.567Z,11.23
2024-01-12T01:59:36.447Z,12.27
2024-01-12T02:02:05.196Z,12.17
2024-01-12T02:04:32.389Z,12.60
2024-01-12T02:06:59.401Z,12.07
2024-01-12T02:09:28.622Z,11.53
2024-01-12T02:11:56.019Z,11.17
2024-01-12T02:14:23.274Z,11.63
2024-01-12T02:16:50.394Z,11.33
2024-01-12T02:19:17.417Z,11.50
2024-01-12T02:21:44.425Z,11.13
2024-01-12T02:24:11.237Z,11.67
2024-01-12T02:26:38.192Z,11.17
2024-01-12T02:29:05.105Z,11.73
2024-01-12T02:31:32.153Z,11.83
2024-01-12T02:33:59.002Z,11.57
2024-01-12T02:36:28.955Z,11.10
2024-01-12T02:38:56.624Z,14.60
2024-01-12T02:41:23.712Z,12.83
2024-01-12T02:43:50.612Z,12.10
2024-01-12T02:46:17.762Z,12.30
2024-01-12T02:48:44.611Z,11.53
2024-01-12T02:51:11.452Z,12.30
2024-01-12T02:53:38.373Z,12.10
2024-01-12T02:56:05.310Z,11.63
2024-01-12T02:58:32.124Z,11.73
2024-01-12T03:01:00.258Z,11.80
2024-01-12T03:03:27.165Z,11.77
2024-01-12T03:05:54.139Z,11.83
2024-01-12T03:08:20.913Z,11.90
2024-01-12T03:10:47.744Z,11.87
2024-01-12T03:13:14.509Z,11.93
2024-01-12T03:15:41.339Z,11.50
2024-01-12T03:18:08.296Z,11.27
2024-01-12T03:20:36.329Z,11.07
2024-01-12T03:23:03.381Z,11.50
2024-01-12T03:25:30.242Z,11.83
2024-01-12T03:27:59.594Z,12.10
2024-01-12T03:30:26.483Z,10.90
2024-01-12T03:32:53.560Z,11.20
2024-01-12T03:35:20.410Z,12.10
2024-01-12T03:37:47.239Z,12.30
2024-01-12T03:40:14.198Z,12.17
2024-01-12T03:42:41.018Z,12.03
2024-01-12T03:45:08.965Z,11.50
2024-01-12T03:47:36.486Z,10.97
2024-01-12T03:50:03.579Z,12.63
2024-01-12T03:52:30.388Z,11.30
2024-01-12T03:54:57.200Z,11.33
2024-01-12T03:57:24.701Z,11.87
2024-01-12T03:59:51.563Z,12.40
2024-01-12T04:02:19.230Z,12.10
2024-01-12T04:04:46.092Z,12.23
2024-01-12T04:07:13.027Z,11.07
2024-01-12T04:09:42.573Z,13.00
2024-01-12T04:12:10.134Z,13.10
2024-01-12T04:14:37.362Z,12.40
2024-01-12T04:17:05.775Z,12.73
2024-01-12T04:19:32.753Z,12.33
2024-01-12T04:21:59.828Z,12.43
2024-01-12T04:24:26.656Z,13.90
2024-01-12T04:26:53.733Z,11.87
2024-01-12T04:29:20.627Z,13.27
2024-01-12T04:31:47.443Z,13.33
2024-01-12T04:34:14.334Z,12.53
2024-01-12T04:36:41.246Z,12.83
2024-01-12T04:39:08.038Z,13.30
2024-01-12T04:41:34.881Z,12.30
2024-01-12T04:44:01.745Z,13.60
2024-01-12T04:46:29.780Z,14.10
2024-01-12T04:48:56.772Z,13.03
2024-01-12T04:51:23.660Z,13.83
2024-01-12T04:53:50.581Z,14.57
2024-01-12T04:56:17.679Z,13.37
2024-01-12T04:58:44.606Z,13.27
2024-01-12T05:01:11.451Z,14.07
2024-01-12T05:03:38.335Z,13.90
2024-01-12T05:06:05.546Z,13.60
2024-01-12T05:08:35.093Z,13.67
2024-01-12T05:11:01.933Z,13.37
2024-01-12T05:13:28.782Z,14.00
2024-01-12T05:15:55.729Z,14.00
2024-01-12T05:18:23.427Z,13.53
2024-01-12T05:20:50.363Z,13.53
2024-01-12T05:23:17.541Z,15.40
2024-01-12T05:25:44.450Z,14.47
2024-01-12T05:28:11.503Z,15.13
2024-01-12T05:30:39.421Z,14.63
2024-01-12T05:33:06.374Z,14.43
2024-01-12T05:35:33.445Z,15.07
2024-01-12T05:38:00.326Z,15.03
2024-01-12T05:40:27.100Z,14.63
2024-01-12T05:42:53.937Z,15.23
2024-01-12T05:45:20.749Z,14.37
2024-01-12T05:47:47.629Z,14.70
2024-01-12T05:50:14.726Z,15.50
2024-01-12T05:52:41.598Z,15.23
2024-01-12T05:55:08.638Z,15.13
2024-01-12T05:57:36.327Z,15.30
2024-01-12T06:00:05.489Z,14.97
2024-01-12T06:02:32.814Z,14.60
2024-01-12T06:04:59.601Z,14.77
2024-01-12T06:07:26.516Z,15.93
2024-01-12T06:09:54.801Z,14.57
2024-01-12T06:12:21.587Z,15.47
2024-01-12T06:14:48.362Z,15.57
2024-01-12T06:17:15.295Z,15.17
2024-01-12T06:19:42.252Z,15.17
2024-01-12T06:22:10.969Z,15.60
2024-01-12T06:24:37.786Z,15.70
2024-01-12T06:27:05.551Z,15.47
2024-01-12T06:29:32.861Z,15.00
2024-01-12T06:31:59.924Z,16.80
2024-01-12T06:34:26.686Z,15.00
2024-01-12T06:36:53.504Z,15.80
2024-01-12T06:39:20.772Z,16.70
2024-01-12T06:41:48.274Z,16.97
2024-01-12T06:44:15.858Z,16.87
2024-01-12T06:46:45.017Z,16.30
2024-01-12T06:49:13.075Z,16.40
2024-01-12T06:51:40.150Z,17.57
2024-01-12T06:54:07.164Z,16.80
2024-01-12T06:56:38.432Z,16.53
2024-01-12T06:59:05.978Z,15.77
2024-01-12T07:01:33.413Z,16.00
2024-01-12T07:04:00.407Z,15.47
2024-01-12T07:06:27.449Z,15.73
2024-01-12T07:08:54.495Z,16.30
2024-01-12T07:11:21.471Z,15.27
2024-01-12T07:13:48.246Z,15.57
2024-01-12T07:16:15.287Z,15.63
2024-01-12T07:18:43.865Z,15.70
2024-01-12T07:21:10.848Z,16.10
2024-01-12T07:23:37.735Z,14.20
2024-01-12T07:26:04.690Z,15.23
2024-01-12T07:28:31.956Z,15.80
2024-01-12T07:30:58.876Z,15.90
2024-01-12T07:33:26.116Z,15.63
2024-01-12T07:35:53.189Z,14.37
2024-01-12T07:38:20.510Z,13.07
2024-01-12T07:40:48.302Z,15.17
2024-01-12T07:43:15.505Z,14.60
2024-01-12T07:45:42.428Z,13.90
2024-01-12T07:48:09.581Z,12.73
2024-01-12T07:50:37.106Z,13.17
2024-01-12T07:53:04.064Z,13.03
2024-01-12T07:55:31.249Z,12.17
2024-01-12T07:57:58.172Z,12.60
2024-01-12T08:00:25.026Z,11.80
2024-01-12T08:02:53.730Z,9.40
2024-01-12T08:05:21.735Z,8.40
2024-01-12T08:07:49.429Z,7.33
2024-01-12T08:10:17.097Z,6.90
2024-01-12T08:12:43.942Z,7.10
2024-01-12T08:15:11.017Z,6.90
2024-01-12T08:17:38.921Z,7.70
2024-01-12T08:20:06.841Z,7.87
2024-01-12T08:22:33.828Z,6.90
2024-01-12T08:25:01.206Z,6.40
2024-01-12T08:27:28.125Z,6.53
2024-01-12T08:29:55.009Z,7.20
2024-01-12T08:32:21.999Z,6.70
2024-01-12T08:34:49.382Z,7.00
2024-01-12T08:37:16.222Z,6.80
2024-01-12T08:39:43.040Z,7.30
2024-01-12T08:42:09.876Z,5.70
2024-01-12T08:44:36.776Z,6.23
2024-01-12T08:47:03.710Z,6.10
2024-01-12T08:49:30.526Z,6.17
2024-01-12T08:51:57.421Z,6.20
2024-01-12T08:54:24.200Z,6.53
2024-01-12T08:56:51.536Z,6.83
2024-01-12T08:59:18.517Z,7.53
2024-01-12T09:01:45.478Z,6.90
2024-01-12T09:04:12.517Z,7.60
2024-01-12T09:06:39.480Z,7.10
2024-01-12T09:09:06.505Z,7.27
2024-01-12T09:11:33.374Z,7.50
2024-01-12T09:14:00.287Z,7.37
2024-01-12T09:16:27.131Z,7.20
2024-01-12T09:18:54.084Z,8.53
2024-01-12T09:21:21.030Z,7.17
2024-01-12T09:23:47.973Z,7.77
2024-01-12T09:26:14.781Z,8.40
2024-01-12T09:28:41.599Z,8.30
2024-01-12T09:31:09.415Z,8.43
2024-01-12T09:33:36.565Z,7.67
2024-01-12T09:36:04.525Z,8.40
2024-01-12T09:38:31.542Z,7.83
2024-01-12T09:40:59.903Z,7.37
2024-01-12T09:43:29.436Z,7.10
2024-01-12T09:46:00.270Z,6.50
2024-01-12T09:48:28.534Z,6.87
2024-01-12T09:50:58.831Z,7.07
2024-01-12T09:53:26.921Z,5.90
2024-01-12T09:56:03.381Z,6.53
2024-01-12T09:58:37.973Z,7.60
2024-01-12T10:01:06.546Z,7.47
2024-01-12T10:03:34.699Z,7.20
2024-01-12T10:06:01.798Z,7.90
2024-01-12T10:08:38.794Z,7.13
2024-01-12T10:11:05.650Z,7.77
2024-01-12T10:13:33.010Z,7.83
2024-01-12T10:16:02.248Z,7.50
2024-01-12T10:18:29.587Z,9.07
2024-01-12T10:20:56.949Z,9.37
2024-01-12T10:23:24.667Z,8.70
2024-01-12T10:26:01.264Z,7.80
2024-01-12T10:28:32.266Z,8.57
2024-01-12T10:31:04.304Z,7.10
2024-01-12T10:33:31.460Z,7.60
2024-01-12T10:36:07.766Z,6.77
2024-01-12T10:38:38.137Z,8.07
2024-01-12T10:41:07.560Z,7.70
2024-01-12T10:43:38.369Z,7.03
2024-01-12T10:46:13.412Z,6.87
2024-01-12T10:49:06.654Z,7.00
2024-01-12T10:51:38.106Z,7.17
2024-01-12T10:54:20.086Z,8.10
2024-01-12T10:56:47.090Z,7.10
2024-01-12T10:59:14.320Z,7.23
2024-01-12T11:01:42.108Z,7.70
2024-01-12T11:04:09.297Z,7.00
2024-01-12T11:06:37.504Z,6.80
2024-01-12T11:09:06.063Z,7.10
2024-01-12T11:11:41.471Z,6.77
2024-01-12T11:14:08.973Z,6.73
2024-01-12T11:16:36.457Z,6.87
2024-01-12T11:19:04.671Z,7.00
2024-01-12T11:21:31.714Z,6.87
2024-01-12T11:23:58.660Z,7.00
2024-01-12T11:26:25.586Z,6.50
2024-01-12T11:28:52.435Z,5.93
2024-01-12T11:31:27.302Z,6.97
2024-01-12T11:34:04.375Z,6.60
2024-01-12T11:36:31.849Z,7.73
2024-01-12T11:39:02.175Z,7.07
2024-01-12T11:41:31.154Z,6.97
2024-01-12T11:43:58.284Z,7.23
2024-01-12T11:46:25.330Z,7.80
2024-01-12T11:48:52.872Z,7.00
2024-01-12T11:51:24.313Z,8.40
2024-01-12T11:53:53.301Z,7.50
2024-01-12T11:56:25.203Z,7.80
2024-01-12T11:58:55.436Z,7.73
2024-01-12T12:01:24.022Z,6.93
2024-01-12T12:03:50.941Z,7.23
2024-01-12T12:06:18.431Z,6.83
2024-01-12T12:08:45.472Z,7.07
2024-01-12T12:11:15.115Z,7.83
2024-01-12T12:13:42.616Z,7.37
2024-01-12T12:16:09.601Z,7.77
2024-01-12T12:18:36.792Z,7.13
2024-01-12T12:21:04.211Z,7.30
2024-01-12T12:23:31.488Z,8.00
2024-01-12T12:26:00.629Z,13.57
2024-01-12T12:28:27.837Z,8.67
2024-01-12T12:30:55.250Z,9.47
2024-01-12T12:33:26.101Z,8.90
2024-01-12T12:36:10.308Z,9.10
2024-01-12T12:38:38.773Z,8.93
2024-01-12T12:41:09.944Z,10.23
2024-01-12T12:43:39.176Z,8.67
2024-01-12T12:46:06.442Z,8.40
2024-01-12T12:48:33.485Z,7.27
2024-01-12T12:51:00.699Z,8.20
2024-01-12T12:53:27.998Z,8.07
2024-01-12T12:55:55.418Z,8.00
2024-01-12T12:58:22.259Z,7.57
2024-01-12T13:00:49.462Z,7.93
2024-01-12T13:03:16.408Z,7.97
2024-01-12T13:05:43.455Z,8.27
2024-01-12T13:08:10.586Z,8.93
2024-01-12T13:10:37.834Z,8.43
2024-01-12T13:13:05.481Z,9.10
2024-01-12T13:15:33.394Z,8.07
2024-01-12T13:18:00.509Z,7.80
2024-01-12T13:20:30.404Z,7.43
2024-01-12T13:22:58.240Z,7.60
2024-01-12T13:25:25.302Z,7.83
2024-01-12T13:27:52.134Z,7.13
2024-01-12T13:30:19.329Z,8.67
2024-01-12T13:32:46.340Z,10.23
2024-01-12T13:35:13.425Z,9.93
2024-01-12T13:37:40.342Z,9.20
2024-01-12T13:40:07.887Z,8.47
2024-01-12T13:42:35.053Z,8.27
2024-01-12T13:45:02.907Z,7.57
2024-01-12T13:47:30.154Z,11.80
2024-01-12T13:49:57.135Z,9.23
2024-01-12T13:52:24.143Z,9.47
2024-01-12T13:54:51.096Z,11.73
2024-01-12T13:57:18.169Z,9.13
2024-01-12T13:59:45.212Z,8.93
2024-01-12T14:02:12.101Z,7.57
2024-01-12T14:04:39.072Z,8.23
2024-01-12T14:07:07.165Z,11.67
2024-01-12T14:09:34.128Z,10.03
2024-01-12T14:12:01.852Z,12.47
2024-01-12T14:14:28.846Z,9.27
2024-01-12T14:16:55.988Z,8.57
2024-01-12T14:19:22.935Z,8.33
2024-01-12T14:21:49.860Z,7.40
2024-01-12T14:24:17.977Z,7.20
2024-01-12T14:26:44.964Z,7.93
2024-01-12T14:29:12.336Z,11.50
2024-01-12T14:31:39.463Z,7.90
2024-01-12T14:34:06.653Z,7.27
2024-01-12T14:36:33.636Z,7.73
2024-01-12T14:39:00.523Z,8.47
2024-01-12T14:41:27.448Z,7.83
2024-01-12T14:43:54.303Z,7.17
2024-01-12T14:46:22.163Z,6.90
2024-01-12T14:48:49.959Z,9.10
2024-01-12T14:51:17.330Z,8.43
2024-01-12T14:53:44.381Z,12.27
2024-01-12T14:56:14.647Z,9.83
2024-01-12T14:58:42.773Z,13.40
2024-01-12T15:01:09.831Z,31.70
2024-01-12T15:03:37.090Z,12.07
2024-01-12T15:06:04.697Z,8.97
2024-01-12T15:08:33.580Z,10.40
2024-01-12T15:11:00.590Z,8.33
2024-01-12T15:13:28.376Z,8.83
2024-01-12T15:15:56.866Z,10.13
2024-01-12T15:18:24.376Z,10.00
2024-01-12T15:20:55.057Z,9.00
2024-01-12T15:23:22.328Z,8.20
2024-01-12T15:25:54.739Z,18.90
2024-01-12T15:28:21.617Z,13.20
2024-01-12T15:30:48.547Z,10.97
2024-01-12T15:33:15.728Z,11.10
2024-01-12T15:35:44.005Z,16.43
2024-01-12T15:38:10.812Z,12.43
2024-01-12T15:40:37.600Z,11.87
2024-01-12T15:43:04.793Z,9.90
2024-01-12T15:45:31.949Z,8.93
2024-01-12T15:47:59.079Z,8.30
2024-01-12T15:50:27.116Z,8.73
2024-01-12T15:52:54.025Z,12.23
2024-01-12T15:55:20.770Z,11.67
2024-01-12T15:57:47.693Z,9.10
2024-01-12T16:00:14.817Z,8.60
2024-01-12T16:02:41.725Z,7.50
2024-01-12T16:05:08.994Z,7.17
2024-01-12T16:07:35.835Z,7.33
2024-01-12T16:10:02.921Z,7.40
2024-01-12T16:12:30.039Z,6.80
2024-01-12T16:14:56.898Z,8.53
2024-01-12T16:17:23.869Z,7.40
2024-01-12T16:19:51.038Z,7.27
2024-01-12T16:22:18.025Z,7.67
2024-01-12T16:24:49.526Z,6.70
2024-01-12T16:27:17.118Z,7.60
2024-01-12T16:29:45.325Z,7.03
2024-01-12T16:32:12.472Z,9.50
2024-01-12T16:34:39.614Z,8.37
2024-01-12T16:37:06.531Z,8.77
2024-01-12T16:39:33.423Z,9.07
2024-01-12T16:42:00.468Z,8.43
2024-01-12T16:44:28.874Z,7.70
2024-01-12T16:46:55.902Z,8.17
2024-01-12T16:49:23.179Z,8.93
2024-01-12T16:51:50.244Z,9.43
2024-01-12T16:54:17.470Z,9.07
2024-01-12T16:56:44.365Z,9.40
2024-01-12T16:59:12.085Z,8.40
2024-01-12T17:01:39.805Z,9.57
2024-01-12T17:04:06.781Z,12.60
2024-01-12T17:06:41.217Z,10.40
2024-01-12T17:09:12.136Z,9.83
2024-01-12T17:11:46.693Z,10.03
2024-01-12T17:14:13.941Z,8.97
2024-01-12T17:16:44.723Z,9.23
2024-01-12T17:19:12.005Z,9.60
2024-01-12T17:21:39.036Z,10.47
2024-01-12T17:24:06.167Z,9.97
2024-01-12T17:26:36.368Z,9.60
2024-01-12T17:29:03.312Z,11.43
2024-01-12T17:31:31.349Z,13.23
2024-01-12T17:33:58.740Z,12.77
2024-01-12T17:36:25.602Z,11.30
2024-01-12T17:38:52.644Z,12.97
2024-01-12T17:41:23.776Z,13.33
2024-01-12T17:43:51.546Z,10.67
2024-01-12T17:46:18.407Z,10.53
2024-01-12T17:48:45.554Z,11.03
2024-01-12T17:51:16.200Z,10.77
2024-01-12T17:53:44.247Z,10.77
2024-01-12T17:56:12.351Z,10.97
2024-01-12T17:58:39.274Z,9.73
2024-01-12T18:01:06.115Z,10.73
2024-01-12T18:03:32.908Z,11.40
2024-01-12T18:06:03.168Z,10.77
2024-01-12T18:08:30.105Z,10.10
2024-01-12T18:10:56.923Z,11.80
2024-01-12T18:13:23.797Z,10.63
2024-01-12T18:15:50.732Z,12.93
2024-01-12T18:18:17.963Z,11.60
2024-01-12T18:20:45.032Z,10.13
2024-01-12T18:23:11.885Z,10.97
2024-01-12T18:25:38.739Z,10.93
2024-01-12T18:28:05.615Z,9.87
2024-01-12T18:30:32.659Z,10.20
2024-01-12T18:33:02.688Z,12.30
2024-01-12T18:35:29.633Z,10.43
2024-01-12T18:37:56.553Z,9.03
2024-01-12T18:40:23.479Z,9.87
2024-01-12T18:42:50.460Z,10.07
2024-01-12T18:45:17.415Z,10.33
2024-01-12T18:47:44.323Z,8.87
2024-01-12T18:50:11.344Z,9.13
2024-01-12T18:52:43.838Z,8.73
2024-01-12T18:55:10.814Z,11.03
2024-01-12T18:57:37.624Z,9.57
2024-01-12T19:00:06.481Z,15.73
2024-01-12T19:02:33.368Z,28.07
2024-01-12T19:05:00.262Z,23.77
2024-01-12T19:07:28.810Z,10.67
2024-01-12T19:09:58.163Z,9.70
2024-01-12T19:12:24.991Z,10.80
2024-01-12T19:14:51.924Z,11.87
2024-01-12T19:17:18.945Z,10.63
2024-01-12T19:19:45.974Z,11.63
2024-01-12T19:22:12.991Z,13.37
2024-01-12T19:24:44.780Z,10.40
2024-01-12T19:27:12.617Z,12.87
2024-01-12T19:29:39.610Z,10.80
2024-01-12T19:32:06.954Z,13.80
2024-01-12T19:34:33.950Z,12.23
2024-01-12T19:37:00.783Z,9.93
2024-01-12T19:39:27.612Z,12.00
2024-01-12T19:41:58.530Z,10.27
2024-01-12T19:44:25.524Z,9.47
2024-01-12T19:46:52.357Z,7.67
2024-01-12T19:49:19.239Z,8.23
2024-01-12T19:51:46.129Z,7.23
2024-01-12T19:54:13.101Z,9.90
2024-01-12T19:56:39.952Z,7.73
2024-01-12T19:59:07.041Z,8.40
2024-01-12T20:01:33.971Z,9.40
2024-01-12T20:04:01.575Z,9.87
2024-01-12T20:06:28.695Z,10.33
2024-01-12T20:08:55.683Z,7.90
2024-01-12T20:11:22.495Z,12.43
2024-01-12T20:13:49.278Z,7.77
2024-01-12T20:16:16.155Z,13.67
2024-01-12T20:18:43.660Z,6.70
2024-01-12T20:21:11.594Z,6.20
2024-01-12T20:23:39.250Z,7.20
2024-01-12T20:26:06.441Z,8.03
2024-01-12T20:28:34.732Z,7.30
2024-01-12T20:31:02.594Z,7.00
2024-01-12T20:33:29.871Z,6.83
2024-01-12T20:35:56.982Z,6.27
2024-01-12T20:38:23.839Z,6.60
2024-01-12T20:40:50.667Z,6.20
2024-01-12T20:43:17.491Z,6.20
2024-01-12T20:45:44.728Z,5.90
2024-01-12T20:48:11.638Z,5.53
2024-01-12T20:50:38.593Z,6.63
2024-01-12T20:53:05.652Z,7.57
2024-01-12T20:55:32.468Z,7.87
2024-01-12T20:57:59.659Z,7.40
2024-01-12T21:00:26.661Z,7.57
2024-01-12T21:02:53.595Z,6.87
2024-01-12T21:05:20.601Z,8.90
2024-01-12T21:07:47.576Z,8.70
2024-01-12T21:10:14.501Z,7.20
2024-01-12T21:12:41.286Z,11.40
2024-01-12T21:15:08.489Z,18.60
2024-01-12T21:17:35.330Z,18.90
2024-01-12T21:20:02.416Z,11.73
2024-01-12T21:22:33.974Z,10.13
2024-01-12T21:25:07.592Z,8.20
2024-01-12T21:27:34.570Z,9.97
2024-01-12T21:30:01.567Z,9.67
2024-01-12T21:32:29.528Z,9.27
2024-01-12T21:34:56.583Z,9.53
2024-01-12T21:37:23.477Z,9.10
2024-01-12T21:39:50.338Z,9.43
2024-01-12T21:42:19.502Z,9.23
2024-01-12T21:44:46.575Z,9.63
2024-01-12T21:47:15.265Z,9.30
2024-01-12T21:49:42.516Z,10.07
2024-01-12T21:52:09.509Z,11.27
2024-01-12T21:54:36.290Z,10.87
2024-01-12T21:57:03.532Z,10.20
2024-01-12T21:59:30.968Z,10.20
2024-01-12T22:01:58.092Z,8.73
2024-01-12T22:04:24.859Z,8.97
2024-01-12T22:06:51.781Z,9.67
2024-01-12T22:09:18.877Z,9.77
2024-01-12T22:11:45.773Z,8.93
2024-01-12T22:14:12.694Z,9.50
2024-01-12T22:16:39.619Z,10.07
2024-01-12T22:19:06.591Z,10.67
2024-01-12T22:21:36.473Z,10.60
2024-01-12T22:24:06.666Z,10.03
2024-01-12T22:26:33.544Z,10.13
2024-01-12T22:29:02.854Z,10.80
2024-01-12T22:31:29.657Z,10.47
2024-01-12T22:33:56.630Z,10.67
2024-01-12T22:36:23.552Z,11.30
2024-01-12T22:38:50.424Z,11.30
2024-01-12T22:41:17.333Z,11.77
2024-01-12T22:43:44.208Z,11.47
2024-01-12T22:46:10.978Z,14.30
2024-01-12T22:48:37.798Z,13.33
2024-01-12T22:51:05.890Z,11.43
2024-01-12T22:53:33.487Z,10.67
2024-01-12T22:56:00.341Z,10.33
2024-01-12T22:58:27.153Z,10.27
2024-01-12T23:00:54.047Z,9.43
2024-01-12T23:03:20.962Z,9.90
2024-01-12T23:05:47.881Z,9.90
2024-01-12T23:08:14.769Z,9.70
2024-01-12T23:10:41.618Z,10.10
2024-01-12T23:13:08.406Z,10.37
2024-01-12T23:15:35.250Z,10.20
2024-01-12T23:18:02.584Z,11.33
2024-01-12T23:20:30.301Z,10.07
2024-01-12T23:22:57.720Z,9.63
2024-01-12T23:25:24.731Z,10.33
2024-01-12T23:27:51.516Z,9.93
2024-01-12T23:30:18.414Z,8.97
2024-01-12T23:32:45.608Z,9.70
2024-01-12T23:35:12.819Z,9.60
2024-01-12T23:37:39.768Z,9.60
2024-01-12T23:40:10.405Z,10.40
2024-01-12T23:42:37.710Z,10.30
2024-01-12T23:45:05.178Z,9.70
2024-01-12T23:47:32.648Z,9.47
2024-01-12T23:49:59.807Z,9.63
2024-01-12T23:52:26.707Z,9.60
2024-01-12T23:54:53.476Z,10.10
2024-01-12T23:57:20.346Z,9.13
2024-01-12T23:59:47.334Z,9.63
